createdAt,value
2022-10-26T00:02:13.979Z,12.50
2022-10-26T00:04:43.983Z,14.25
2022-10-26T00:07:14.247Z,13.18
2022-10-26T00:09:44.083Z,11.50
2022-10-26T00:12:13.955Z,12.30
2022-10-26T00:14:44.582Z,11.85
2022-10-26T00:17:14.365Z,10.80
2022-10-26T00:19:44.397Z,11.85
2022-10-26T00:22:14.480Z,11.88
2022-10-26T00:24:44.303Z,12.02
2022-10-26T00:27:14.092Z,12.32
2022-10-26T00:29:44.277Z,9.68
2022-10-26T00:32:14.179Z,10.82
2022-10-26T00:34:43.998Z,10.82
2022-10-26T00:37:13.824Z,10.45
2022-10-26T00:39:43.617Z,10.95
2022-10-26T00:42:22.355Z,12.48
2022-10-26T00:45:02.780Z,12.77
2022-10-26T00:47:53.216Z,12.35
2022-10-26T00:50:32.219Z,13.25
2022-10-26T00:53:05.418Z,13.23
2022-10-26T00:55:38.168Z,14.95
2022-10-26T00:58:11.092Z,14.43
2022-10-26T01:00:43.126Z,14.65
2022-10-26T01:03:13.616Z,13.75
2022-10-26T01:10:46.106Z,15.53
2022-10-26T01:13:17.845Z,16.88
2022-10-26T01:16:22.075Z,17.15
2022-10-26T01:19:22.514Z,23.58
2022-10-26T01:22:05.504Z,19.52
2022-10-26T01:25:01.755Z,16.75
2022-10-26T01:27:41.072Z,18.35
2022-10-26T01:30:42.794Z,19.35
2022-10-26T01:33:26.899Z,18.20
2022-10-26T01:36:24.824Z,18.23
2022-10-26T01:39:23.160Z,16.90
2022-10-26T01:41:57.145Z,17.67
2022-10-26T01:44:47.530Z,20.50
2022-10-26T01:47:20.114Z,19.60
2022-10-26T01:49:56.816Z,20.13
2022-10-26T01:52:27.481Z,19.23
2022-10-26T01:55:33.902Z,19.85
2022-10-26T01:58:18.272Z,20.58
2022-10-26T02:01:01.123Z,20.92
2022-10-26T02:03:56.835Z,18.75
2022-10-26T02:06:43.265Z,19.98
2022-10-26T02:09:40.917Z,18.50
2022-10-26T02:12:23.461Z,16.83
2022-10-26T02:15:03.141Z,16.85
2022-10-26T02:17:58.545Z,18.05
2022-10-26T02:20:36.139Z,17.83
2022-10-26T02:23:09.732Z,16.02
2022-10-26T02:25:44.556Z,18.30
2022-10-26T02:28:19.857Z,17.27
2022-10-26T02:30:53.062Z,20.08
2022-10-26T02:33:24.535Z,17.77
2022-10-26T02:35:56.962Z,16.73
2022-10-26T02:38:28.781Z,17.45
2022-10-26T02:41:00.345Z,20.52
2022-10-26T02:46:12.123Z,19.20
2022-10-26T02:48:42.074Z,19.95
2022-10-26T02:51:27.050Z,22.65
2022-10-26T02:54:18.368Z,21.83
2022-10-26T02:56:57.660Z,24.77
2022-10-26T02:59:31.761Z,24.40
2022-10-26T03:02:05.451Z,22.75
2022-10-26T03:04:37.237Z,21.75
2022-10-26T03:07:07.161Z,23.60
2022-10-26T03:09:37.011Z,22.80
2022-10-26T03:12:07.200Z,24.30
2022-10-26T03:14:37.308Z,23.15
2022-10-26T03:17:07.165Z,24.25
2022-10-26T03:19:37.068Z,23.17
2022-10-26T03:22:07.395Z,23.80
2022-10-26T03:27:06.510Z,23.85
2022-10-26T03:29:36.490Z,25.35
2022-10-26T03:32:06.398Z,23.75
2022-10-26T03:34:36.380Z,26.00
2022-10-26T03:37:06.356Z,27.02
2022-10-26T03:39:36.174Z,25.65
2022-10-26T03:42:06.055Z,27.48
2022-10-26T03:44:36.055Z,29.55
2022-10-26T03:47:05.856Z,29.50
2022-10-26T03:49:35.610Z,30.65
2022-10-26T03:52:05.706Z,27.70
2022-10-26T03:54:35.690Z,28.13
2022-10-26T03:57:05.487Z,26.98
2022-10-26T03:59:35.483Z,28.65
2022-10-26T04:02:05.295Z,28.90
2022-10-26T04:04:35.128Z,31.70
2022-10-26T04:07:04.943Z,28.85
2022-10-26T04:09:34.737Z,27.98
2022-10-26T04:12:04.568Z,26.75
2022-10-26T04:14:34.471Z,26.83
2022-10-26T04:17:04.296Z,29.70
2022-10-26T04:19:34.187Z,26.23
2022-10-26T04:22:04.229Z,22.13
2022-10-26T04:24:34.284Z,25.27
2022-10-26T04:27:04.284Z,23.95
2022-10-26T04:29:35.493Z,27.30
2022-10-26T04:32:05.564Z,26.77
2022-10-26T04:37:05.878Z,24.58
2022-10-26T04:39:35.794Z,25.27
2022-10-26T04:42:05.909Z,25.90
2022-10-26T04:47:05.752Z,23.38
2022-10-26T04:49:35.665Z,23.67
2022-10-26T04:52:09.476Z,23.90
2022-10-26T04:54:39.443Z,21.95
2022-10-26T04:57:09.265Z,23.05
2022-10-26T04:59:39.071Z,23.17
2022-10-26T05:02:08.941Z,22.05
2022-10-26T05:04:38.817Z,19.88
2022-10-26T05:07:08.712Z,17.35
2022-10-26T05:09:39.436Z,19.73
2022-10-26T05:12:09.259Z,17.48
2022-10-26T05:14:39.086Z,17.83
2022-10-26T05:17:08.951Z,17.83
2022-10-26T05:19:38.956Z,14.38
2022-10-26T05:24:38.005Z,14.73
2022-10-26T05:27:07.864Z,17.23
2022-10-26T05:29:38.101Z,17.10
2022-10-26T05:32:08.335Z,16.90
2022-10-26T05:34:40.862Z,12.73
2022-10-26T05:37:11.504Z,12.38
2022-10-26T05:39:41.417Z,12.90
2022-10-26T05:42:11.401Z,13.30
2022-10-26T05:47:10.461Z,11.38
2022-10-26T05:49:40.582Z,12.45
2022-10-26T05:52:10.435Z,13.90
2022-10-26T05:54:40.426Z,12.68
2022-10-26T05:59:44.360Z,13.27
2022-10-26T06:02:42.717Z,12.43
2022-10-26T06:05:20.448Z,11.85
2022-10-26T06:07:50.898Z,12.45
2022-10-26T06:10:21.581Z,12.90
2022-10-26T06:12:51.926Z,13.18
2022-10-26T06:15:24.328Z,13.52
2022-10-26T06:18:23.889Z,14.15
2022-10-26T06:34:41.965Z,12.95
2022-10-26T06:37:12.462Z,13.50
2022-10-26T06:39:50.106Z,13.05
2022-10-26T06:42:22.828Z,12.75
2022-10-26T06:44:53.061Z,12.75
2022-10-26T06:47:36.275Z,12.52
2022-10-26T06:50:24.404Z,13.07
2022-10-26T06:53:21.803Z,13.30
2022-10-26T06:55:53.654Z,12.77
2022-10-26T06:58:26.721Z,14.23
2022-10-26T07:00:57.547Z,12.60
2022-10-26T07:03:27.387Z,13.05
2022-10-26T07:05:57.442Z,12.55
2022-10-26T07:08:27.579Z,14.55
2022-10-26T07:10:57.461Z,13.85
2022-10-26T07:15:56.722Z,13.55
2022-10-26T07:20:55.752Z,13.82
2022-10-26T07:23:26.426Z,13.80
2022-10-26T07:25:56.328Z,12.38
2022-10-26T07:28:26.236Z,13.32
2022-10-26T07:30:56.336Z,13.55
2022-10-26T07:33:27.114Z,11.63
2022-10-26T07:35:57.705Z,11.38
2022-10-26T07:38:28.190Z,12.02
2022-10-26T07:40:58.045Z,12.02
2022-10-26T07:43:27.959Z,12.65
2022-10-26T07:48:27.083Z,11.65
2022-10-26T07:50:57.053Z,9.27
2022-10-26T07:55:59.737Z,11.38
2022-10-26T07:58:29.958Z,11.88
2022-10-26T08:00:59.992Z,12.55
2022-10-26T08:03:30.006Z,11.48
2022-10-26T08:06:00.107Z,10.07
2022-10-26T08:08:30.023Z,10.18
2022-10-26T08:13:29.617Z,10.05
2022-10-26T08:16:01.690Z,11.02
2022-10-26T08:18:31.766Z,10.23
2022-10-26T08:21:11.334Z,10.38
2022-10-26T08:23:42.959Z,13.15
2022-10-26T08:26:13.594Z,13.45
2022-10-26T08:28:44.680Z,13.75
2022-10-26T08:31:14.903Z,13.43
2022-10-26T08:33:45.407Z,14.30
2022-10-26T08:36:21.853Z,19.15
2022-10-26T08:38:52.400Z,12.80
2022-10-26T08:41:35.872Z,14.55
2022-10-26T08:44:27.153Z,13.48
2022-10-26T08:47:16.336Z,14.57
2022-10-26T08:50:01.351Z,13.48
2022-10-26T08:53:05.848Z,13.75
2022-10-26T08:55:44.988Z,14.18
2022-10-26T08:58:21.133Z,13.88
2022-10-26T09:00:55.334Z,13.57
2022-10-26T09:03:26.871Z,12.95
2022-10-26T09:06:18.577Z,13.40
2022-10-26T09:09:16.073Z,12.90
2022-10-26T09:12:14.778Z,14.70
2022-10-26T09:15:05.832Z,15.50
2022-10-26T09:17:53.939Z,13.05
2022-10-26T09:20:50.009Z,14.30
2022-10-26T09:23:55.008Z,13.82
2022-10-26T09:26:35.455Z,16.17
2022-10-26T09:29:10.110Z,16.20
2022-10-26T09:31:46.873Z,16.95
2022-10-26T09:34:33.351Z,15.85
2022-10-26T09:37:15.307Z,18.58
2022-10-26T09:40:12.358Z,17.42
2022-10-26T09:43:12.173Z,16.15
2022-10-26T09:45:50.936Z,16.88
2022-10-26T09:48:50.869Z,16.92
2022-10-26T09:53:53.157Z,17.85
2022-10-26T09:56:23.919Z,30.15
2022-10-26T09:59:04.271Z,39.67
2022-10-26T10:01:42.369Z,27.38
2022-10-26T10:04:27.317Z,23.55
2022-10-26T10:07:21.469Z,25.25
2022-10-26T10:10:10.687Z,26.23
2022-10-26T10:12:42.236Z,35.00
2022-10-26T10:15:26.007Z,41.42
2022-10-26T10:17:58.561Z,25.17
2022-10-26T10:20:35.092Z,25.17
2022-10-26T10:23:07.065Z,28.58
2022-10-26T10:25:42.041Z,26.42
2022-10-26T10:28:27.311Z,27.40
2022-10-26T10:31:01.545Z,26.13
2022-10-26T10:33:42.519Z,26.25
2022-10-26T10:36:21.343Z,28.48
2022-10-26T10:38:53.674Z,28.52
2022-10-26T10:41:34.227Z,28.27
2022-10-26T10:44:18.870Z,25.98
2022-10-26T10:46:49.947Z,26.67
2022-10-26T10:49:27.770Z,26.77
2022-10-26T10:51:59.712Z,28.52
2022-10-26T10:54:36.527Z,30.42
2022-10-26T10:57:36.277Z,28.00
2022-10-26T11:00:13.311Z,55.25
2022-10-26T11:03:07.255Z,31.38
2022-10-26T11:06:02.771Z,31.23
2022-10-26T11:08:40.326Z,33.80
2022-10-26T11:11:17.557Z,32.20
2022-10-26T11:14:20.032Z,34.80
2022-10-26T11:16:58.343Z,33.78
2022-10-26T11:19:56.349Z,31.77
2022-10-26T11:22:31.921Z,33.22
2022-10-26T11:25:09.799Z,31.08
2022-10-26T11:27:59.879Z,31.17
2022-10-26T11:33:19.733Z,34.90
2022-10-26T11:36:11.209Z,35.08
2022-10-26T11:38:57.105Z,34.22
2022-10-26T11:41:52.518Z,36.25
2022-10-26T11:44:56.193Z,39.20
2022-10-26T11:47:37.543Z,37.65
2022-10-26T11:50:28.997Z,38.42
2022-10-26T11:53:14.983Z,35.15
2022-10-26T11:55:50.228Z,39.15
2022-10-26T11:58:21.765Z,36.28
2022-10-26T12:01:07.115Z,35.00
2022-10-26T12:03:42.443Z,36.97
2022-10-26T12:06:14.611Z,39.45
2022-10-26T12:08:57.046Z,38.90
2022-10-26T12:11:50.063Z,37.03
2022-10-26T12:14:39.909Z,46.90
2022-10-26T12:17:26.177Z,43.67
2022-10-26T12:20:16.035Z,41.97
2022-10-26T12:22:46.982Z,44.67
2022-10-26T12:25:25.712Z,46.28
2022-10-26T12:27:58.738Z,45.72
2022-10-26T12:30:35.776Z,40.22
2022-10-26T12:33:27.032Z,39.83
2022-10-26T12:35:57.518Z,42.95
2022-10-26T12:39:06.599Z,42.85
2022-10-26T12:41:41.358Z,41.45
2022-10-26T12:44:43.253Z,41.58
2022-10-26T12:47:32.248Z,40.47
2022-10-26T12:50:22.000Z,40.58
2022-10-26T12:52:59.333Z,40.28
2022-10-26T12:55:53.639Z,40.65
2022-10-26T12:58:51.293Z,40.20
2022-10-26T13:01:46.412Z,40.03
2022-10-26T13:04:42.640Z,41.63
2022-10-26T13:07:23.636Z,47.92
2022-10-26T13:10:08.364Z,47.65
2022-10-26T13:12:51.030Z,47.17
2022-10-26T13:15:41.877Z,43.30
2022-10-26T13:18:21.270Z,43.42
2022-10-26T13:21:21.744Z,45.83
2022-10-26T13:24:09.023Z,42.88
2022-10-26T13:27:18.224Z,41.30
2022-10-26T13:30:20.385Z,39.65
2022-10-26T13:32:59.467Z,42.05
2022-10-26T13:35:30.787Z,41.65
2022-10-26T13:38:05.003Z,41.20
2022-10-26T13:40:39.382Z,42.17
2022-10-26T13:43:17.211Z,42.35
2022-10-26T13:46:05.605Z,41.65
2022-10-26T13:48:43.102Z,41.53
2022-10-26T13:51:23.677Z,44.92
2022-10-26T13:54:02.927Z,43.58
2022-10-26T13:57:06.768Z,45.07
2022-10-26T13:59:44.127Z,42.17
2022-10-26T14:02:28.427Z,41.65
2022-10-26T14:05:07.714Z,42.65
2022-10-26T14:07:57.611Z,51.23
2022-10-26T14:10:32.509Z,44.63
2022-10-26T14:13:03.834Z,49.00
2022-10-26T14:15:36.448Z,48.72
2022-10-26T14:18:07.896Z,45.63
2022-10-26T14:20:38.363Z,47.22
2022-10-26T14:23:27.417Z,47.35
2022-10-26T14:25:59.407Z,47.53
2022-10-26T14:28:35.162Z,48.95
2022-10-26T14:31:27.712Z,46.85
2022-10-26T14:33:59.729Z,48.00
2022-10-26T14:36:37.886Z,48.60
2022-10-26T14:39:19.662Z,52.70
2022-10-26T14:41:51.650Z,50.42
2022-10-26T14:44:26.032Z,51.90
2022-10-26T14:46:56.651Z,51.83
2022-10-26T14:49:29.758Z,52.97
2022-10-26T14:52:06.445Z,49.50
2022-10-26T14:54:38.021Z,50.67
2022-10-26T14:57:10.876Z,52.17
2022-10-26T14:59:44.643Z,51.35
2022-10-26T15:02:22.482Z,51.10
2022-10-26T15:05:34.733Z,50.60
2022-10-26T15:08:06.154Z,49.40
2022-10-26T15:13:30.079Z,49.78
2022-10-26T15:16:21.982Z,47.40
2022-10-26T15:18:57.988Z,49.03
2022-10-26T15:21:33.769Z,55.42
2022-10-26T15:24:04.833Z,50.97
2022-10-26T15:26:35.255Z,50.95
2022-10-26T15:29:05.491Z,50.67
2022-10-26T15:34:16.450Z,50.72
2022-10-26T15:36:46.882Z,50.33
2022-10-26T15:39:17.187Z,55.22
2022-10-26T15:44:24.404Z,52.40
2022-10-26T15:46:55.503Z,54.63
2022-10-26T15:49:26.193Z,52.30
2022-10-26T15:51:58.247Z,49.25
2022-10-26T15:54:28.637Z,50.80
2022-10-26T15:56:59.727Z,50.13
2022-10-26T15:59:30.090Z,50.78
2022-10-26T16:04:30.530Z,51.25
2022-10-26T16:07:04.557Z,47.20
2022-10-26T16:09:35.003Z,50.47
2022-10-26T16:12:05.472Z,49.28
2022-10-26T16:14:53.362Z,50.03
2022-10-26T16:17:27.638Z,47.30
2022-10-26T16:19:58.215Z,49.72
2022-10-26T16:22:28.629Z,48.80
2022-10-26T16:24:59.130Z,47.65
2022-10-26T16:27:29.560Z,49.97
2022-10-26T16:29:59.772Z,49.08
2022-10-26T16:34:59.981Z,47.95
2022-10-26T16:37:33.422Z,47.72
2022-10-26T16:40:03.881Z,47.90
2022-10-26T16:42:34.836Z,47.95
2022-10-26T16:45:06.560Z,46.15
2022-10-26T16:47:39.229Z,48.88
2022-10-26T16:50:11.742Z,51.58
2022-10-26T16:52:42.384Z,54.10
2022-10-26T16:55:13.797Z,50.20
2022-10-26T16:57:44.712Z,54.45
2022-10-26T17:00:15.975Z,54.13
2022-10-26T17:02:46.448Z,52.83
2022-10-26T17:05:17.928Z,51.33
2022-10-26T17:07:50.338Z,50.70
2022-10-26T17:10:21.080Z,52.83
2022-10-26T17:12:51.931Z,52.28
2022-10-26T17:15:24.242Z,51.53
2022-10-26T17:17:58.152Z,54.50
2022-10-26T17:23:00.281Z,54.47
2022-10-26T17:25:30.853Z,48.95
2022-10-26T17:28:01.571Z,57.42
2022-10-26T17:30:34.924Z,53.20
2022-10-26T17:33:05.941Z,54.42
2022-10-26T17:35:39.040Z,52.28
2022-10-26T17:38:09.460Z,51.50
2022-10-26T17:40:40.003Z,50.40
2022-10-26T17:43:10.278Z,48.75
2022-10-26T17:48:10.390Z,51.38
2022-10-26T17:53:10.418Z,49.25
2022-10-26T18:00:44.704Z,46.80
2022-10-26T18:03:17.118Z,45.88
2022-10-26T18:08:23.779Z,46.83
2022-10-26T18:13:25.996Z,47.30
2022-10-26T18:15:56.396Z,44.13
2022-10-26T18:21:02.280Z,45.17
2022-10-26T18:23:32.539Z,45.17
2022-10-26T18:26:11.188Z,43.70
2022-10-26T18:28:44.038Z,45.83
2022-10-26T18:31:18.387Z,45.88
2022-10-26T18:33:48.767Z,44.88
2022-10-26T18:38:50.752Z,42.13
2022-10-26T18:41:23.085Z,41.83
2022-10-26T18:43:55.186Z,43.30
2022-10-26T18:46:29.684Z,39.53
2022-10-26T18:49:02.763Z,40.35
2022-10-26T18:51:36.576Z,40.63
2022-10-26T18:54:07.184Z,37.63
2022-10-26T18:56:37.649Z,39.67
2022-10-26T18:59:08.170Z,39.83
2022-10-26T19:01:44.280Z,38.67
2022-10-26T19:04:14.873Z,40.13
2022-10-26T19:09:21.303Z,42.10
2022-10-26T19:11:51.663Z,44.35
2022-10-26T19:16:54.440Z,50.03
2022-10-26T19:19:24.723Z,49.42
2022-10-26T19:21:55.158Z,45.22
2022-10-26T19:26:56.255Z,44.70
2022-10-26T19:29:26.473Z,45.97
2022-10-26T19:31:57.922Z,47.83
2022-10-26T19:34:28.334Z,45.85
2022-10-26T19:39:29.685Z,47.17
2022-10-26T19:42:00.163Z,50.88
2022-10-26T19:44:30.508Z,44.70
2022-10-26T19:49:30.800Z,39.60
2022-10-26T19:54:30.943Z,41.55
2022-10-26T19:59:31.033Z,42.78
2022-10-26T20:02:02.465Z,43.75
2022-10-26T20:04:32.703Z,45.03
2022-10-26T20:07:03.026Z,45.17
2022-10-26T20:09:34.876Z,44.22
2022-10-26T20:12:05.258Z,42.97
2022-10-26T20:17:06.925Z,44.85
2022-10-26T20:19:37.204Z,41.45
2022-10-26T20:22:07.593Z,38.40
2022-10-26T20:27:09.325Z,41.47
2022-10-26T20:29:39.533Z,39.33
2022-10-26T20:32:09.918Z,40.45
2022-10-26T20:37:15.365Z,43.95
2022-10-26T20:39:45.846Z,42.35
2022-10-26T20:42:26.936Z,44.13
2022-10-26T20:45:29.668Z,42.10
2022-10-26T20:48:02.043Z,39.63
2022-10-26T20:50:33.432Z,43.25
2022-10-26T20:53:21.039Z,44.60
2022-10-26T20:55:58.093Z,44.00
2022-10-26T20:58:52.851Z,45.20
2022-10-26T21:01:34.500Z,44.80
2022-10-26T21:04:06.715Z,41.08
2022-10-26T21:06:41.945Z,40.35
2022-10-26T21:09:12.383Z,42.10
2022-10-26T21:11:42.767Z,41.67
2022-10-26T21:16:42.906Z,41.40
2022-10-26T21:21:42.993Z,40.53
2022-10-26T21:26:44.588Z,42.72
2022-10-26T21:29:15.070Z,40.22
2022-10-26T21:31:45.358Z,39.88
2022-10-26T21:36:46.033Z,43.33
2022-10-26T21:39:16.247Z,41.83
2022-10-26T21:41:46.563Z,42.63
2022-10-26T21:47:06.848Z,42.23
2022-10-26T21:49:37.061Z,43.22
2022-10-26T21:54:37.767Z,40.25
2022-10-26T21:57:08.151Z,42.83
2022-10-26T22:02:08.389Z,43.13
2022-10-26T22:04:39.587Z,44.05
2022-10-26T22:07:09.937Z,42.97
2022-10-26T22:12:30.075Z,45.00
2022-10-26T22:17:30.079Z,41.33
2022-10-26T22:20:00.513Z,39.90
2022-10-26T22:25:00.525Z,43.38
2022-10-26T22:30:02.076Z,40.22
2022-10-26T22:32:32.317Z,41.58
2022-10-26T22:35:11.273Z,44.03
2022-10-26T22:37:53.256Z,41.13
2022-10-26T22:42:54.767Z,43.22
2022-10-26T22:45:25.020Z,40.22
2022-10-26T22:47:55.257Z,41.03
2022-10-26T22:50:25.595Z,41.15
2022-10-26T22:52:55.904Z,39.90
2022-10-26T22:55:26.336Z,37.92
2022-10-26T23:00:26.612Z,41.40
2022-10-26T23:02:57.034Z,40.78
2022-10-26T23:07:57.201Z,40.10
2022-10-26T23:12:57.784Z,39.50
2022-10-26T23:15:28.803Z,41.60
2022-10-26T23:17:59.448Z,38.95
2022-10-26T23:20:29.882Z,39.80
2022-10-26T23:25:30.938Z,45.20
2022-10-26T23:28:01.302Z,40.70
2022-10-26T23:33:01.517Z,42.85
2022-10-26T23:38:02.945Z,41.15
2022-10-26T23:40:33.339Z,44.70
2022-10-26T23:43:03.976Z,47.70
2022-10-26T23:45:34.468Z,48.35
2022-10-26T23:50:34.505Z,42.97
2022-10-26T23:53:09.209Z,44.47
2022-10-26T23:55:40.000Z,42.20
2022-10-26T23:58:10.339Z,40.53
